Aeroporto :
LOGIN :

Iscrizione | Disclaimer

   EN    FR    IT 

 










Sommario :    VFR   VFR Marginale   IFR   IFR Intensivo   IFR Molto Intensivo
Visibilità : 
Base nubi : 
>= 8 km
>= 3000ft
5 / 8 km
1000 / 3000 ft
1500m / 5 km
500 / 1000 ft
800 / 1500m
200 / 500 ft
< 800m
< 200 ft
Simboli :   Temporali  Nebbia  Neve Forte  Precipitazioni Forti  Vento > 20 kt
SIGMETs :   Varie  Temporali  Ghiacco  Turbolenza  Onda orograficha  Ceneri Vulcaniche






- Altitudine del aeroporto : 325 ft
- Codice IATA : POX


LFPT - Pontoise

ULTIMO METAR :
  • 021000Z AUTO 19007KT 160V270 CAVOK 23/09 Q1020

METARs OBSOLETI :
  • 020930Z AUTO 19006KT 130V270 CAVOK 23/10 Q1021
  • 020900Z AUTO 17006KT 090V250 CAVOK 22/10 Q1021
  • 020830Z AUTO 17006KT 140V200 CAVOK 21/10 Q1021
  • 012130Z AUTO 30002KT CAVOK 12/09 Q1022
  • 020800Z AUTO 18006KT 140V210 CAVOK 20/10 Q1021
  • 020730Z AUTO 20004KT CAVOK 19/11 Q1021

TAF N/A
ATIS : +33 1 30 30 52 08



MetMap, La meteo Aeronautica in un colpo d'occhio ! - Copyright ORBIFLY Dicembre 2007 - Disclaimer

ORBIFLY MET'MAP TEAM :

Programmazione e sviluppo : Alexandra Zaïnal
Concezione : Baudouin d'Aumeries
Supporto tecnico e logistico : Manuel Goepfert
Aiuto : Marc-Olivier Méhu
Aiuto per la traduzione : Arnaldo La Scala




FONTI E CREDITI :

   NOAA